createdAt,value
2018-12-24T00:00:25.429Z,99841.00
2018-12-24T00:05:26.947Z,99875.00
2018-12-24T00:10:28.321Z,99877.00
2018-12-24T00:15:29.689Z,99869.00
2018-12-24T00:20:31.052Z,99880.00
2018-12-24T00:25:32.520Z,99881.00
2018-12-24T00:30:33.902Z,99911.00
2018-12-24T00:35:35.371Z,99908.00
2018-12-24T00:40:36.740Z,99915.00
2018-12-24T00:45:38.123Z,99932.00
2018-12-24T00:50:39.504Z,99951.00
2018-12-24T00:55:40.866Z,99958.00
2018-12-24T01:00:42.253Z,99990.00
2018-12-24T01:05:43.654Z,99994.00
2018-12-24T01:10:45.035Z,100025.00
2018-12-24T01:15:46.415Z,100031.00
2018-12-24T01:20:47.896Z,100052.00
2018-12-24T01:25:49.275Z,100075.00
2018-12-24T01:30:50.650Z,100092.00
2018-12-24T01:35:52.007Z,100121.00
2018-12-24T01:40:53.472Z,100130.00
2018-12-24T01:45:54.852Z,100147.00
2018-12-24T01:50:56.248Z,100152.00
2018-12-24T01:55:57.624Z,100166.00
2018-12-24T02:00:59.001Z,100175.00
2018-12-24T02:06:00.376Z,100184.00
2018-12-24T02:11:01.764Z,100192.00
2018-12-24T02:16:03.130Z,100207.00
2018-12-24T02:21:04.495Z,100217.00
2018-12-24T02:26:05.860Z,100237.00
2018-12-24T02:31:07.221Z,100250.00
2018-12-24T02:36:08.583Z,100238.00
2018-12-24T02:41:10.057Z,100246.00
2018-12-24T02:46:11.412Z,100270.00
2018-12-24T02:51:12.804Z,100276.00
2018-12-24T02:56:14.178Z,100290.00
2018-12-24T03:01:15.550Z,100305.00
2018-12-24T03:06:17.367Z,100310.00
2018-12-24T03:11:18.731Z,100316.00
2018-12-24T03:16:20.081Z,100345.00
2018-12-24T03:21:21.456Z,100354.00
2018-12-24T03:26:22.819Z,100370.00
2018-12-24T03:31:24.178Z,100389.00
2018-12-24T03:36:25.541Z,100411.00
2018-12-24T03:41:26.903Z,100426.00
2018-12-24T03:46:28.270Z,100451.00
2018-12-24T03:51:29.649Z,100458.00
2018-12-24T03:56:31.003Z,100464.00
2018-12-24T04:01:32.365Z,100469.00
2018-12-24T04:06:33.723Z,100485.00
2018-12-24T04:11:35.090Z,100485.00
2018-12-24T04:16:36.446Z,100494.00
2018-12-24T04:21:37.803Z,100508.00
2018-12-24T04:26:39.166Z,100510.00
2018-12-24T04:31:40.529Z,100530.00
2018-12-24T04:36:41.888Z,100557.00
2018-12-24T04:41:43.263Z,100571.00
2018-12-24T04:46:44.622Z,100593.00
2018-12-24T04:51:46.010Z,100609.00
2018-12-24T04:56:47.368Z,100634.00
2018-12-24T05:01:48.726Z,100636.00
2018-12-24T05:06:50.094Z,100656.00
2018-12-24T05:11:51.463Z,100672.00
2018-12-24T05:16:52.819Z,100690.00
2018-12-24T05:21:54.253Z,100695.00
2018-12-24T05:26:55.700Z,100706.00
2018-12-24T05:31:57.144Z,100721.00
2018-12-24T05:36:58.597Z,100739.00
2018-12-24T05:42:00.042Z,100758.00
2018-12-24T05:47:01.498Z,100761.00
2018-12-24T05:52:03.000Z,100777.00
2018-12-24T05:57:04.429Z,100771.00
2018-12-24T06:02:05.995Z,100787.00
2018-12-24T06:07:07.781Z,100797.00
2018-12-24T06:12:09.240Z,100802.00
2018-12-24T06:17:10.705Z,100824.00
2018-12-24T06:27:28.889Z,100849.00
2018-12-24T06:32:30.250Z,100868.00
2018-12-24T06:37:32.158Z,100888.00
2018-12-24T06:42:33.530Z,100906.00
2018-12-24T06:47:34.997Z,100918.00
2018-12-24T06:52:36.417Z,100924.00
2018-12-24T06:57:37.949Z,100947.00
2018-12-24T07:02:39.308Z,100953.00
2018-12-24T07:07:40.682Z,100975.00
2018-12-24T07:12:42.049Z,100985.00
2018-12-24T07:17:43.412Z,101010.00
2018-12-24T07:22:44.772Z,101016.00
2018-12-24T07:27:46.145Z,101022.00
2018-12-24T07:32:47.517Z,101030.00
2018-12-24T07:37:48.887Z,101036.00
2018-12-24T07:42:50.269Z,101057.00
2018-12-24T07:47:51.640Z,101061.00
2018-12-24T07:52:53.066Z,101072.00
2018-12-24T07:57:54.448Z,101087.00
2018-12-24T08:02:55.916Z,101100.00
2018-12-24T08:07:57.316Z,101111.00
2018-12-24T08:12:58.665Z,101120.00
2018-12-24T08:18:00.058Z,101134.00
2018-12-24T08:23:01.459Z,101140.00
2018-12-24T08:28:02.823Z,101149.00
2018-12-24T08:33:04.192Z,101150.00
2018-12-24T08:38:05.579Z,101152.00
2018-12-24T08:43:06.964Z,101181.00
2018-12-24T08:48:08.347Z,101192.00
2018-12-24T08:53:09.731Z,101198.00
2018-12-24T08:58:11.096Z,101198.00
2018-12-24T09:03:12.466Z,101214.00
2018-12-24T09:08:13.863Z,101228.00
2018-12-24T09:13:15.215Z,101244.00
2018-12-24T09:18:16.586Z,101264.00
2018-12-24T09:23:17.981Z,101270.00
2018-12-24T09:28:19.380Z,101280.00
2018-12-24T09:33:20.796Z,101291.00
2018-12-24T09:38:22.121Z,101293.00
2018-12-24T09:43:23.495Z,101307.00
2018-12-24T09:48:24.868Z,101306.00
2018-12-24T09:53:26.243Z,101321.00
2018-12-24T09:58:27.608Z,101332.00
2018-12-24T10:03:30.255Z,101319.00
2018-12-24T10:08:31.718Z,101330.00
2018-12-24T10:13:33.089Z,101331.00
2018-12-24T10:18:34.456Z,101320.00
2018-12-24T10:23:35.858Z,101324.00
2018-12-24T10:28:37.184Z,101333.00
2018-12-24T10:33:38.565Z,101350.00
2018-12-24T10:38:39.952Z,101346.00
2018-12-24T10:43:41.343Z,101334.00
2018-12-24T10:48:42.959Z,101341.00
2018-12-24T10:53:44.338Z,101343.00
2018-12-24T10:58:45.695Z,101363.00
2018-12-24T11:03:47.093Z,101370.00
2018-12-24T11:08:48.492Z,101373.00
2018-12-24T11:13:49.904Z,101370.00
2018-12-24T11:18:55.274Z,101367.00
2018-12-24T11:23:56.651Z,101359.00
2018-12-24T11:28:58.042Z,101356.00
2018-12-24T11:33:59.410Z,101366.00
2018-12-24T11:39:00.806Z,101347.00
2018-12-24T11:44:02.201Z,101345.00
2018-12-24T11:49:03.970Z,101345.00
2018-12-24T11:54:05.343Z,101361.00
2018-12-24T11:59:06.718Z,101362.00
2018-12-24T12:04:08.115Z,101362.00
2018-12-24T12:09:09.484Z,101351.00
2018-12-24T12:14:10.895Z,101358.00
2018-12-24T12:19:12.338Z,101355.00
2018-12-24T12:24:13.651Z,101366.00
2018-12-24T12:29:15.011Z,101374.00
2018-12-24T12:34:16.392Z,101370.00
2018-12-24T12:39:17.793Z,101368.00
2018-12-24T12:44:19.167Z,101373.00
2018-12-24T12:49:20.586Z,101394.00
2018-12-24T12:54:22.007Z,101405.00
2018-12-24T12:59:23.420Z,101408.00
2018-12-24T13:04:24.777Z,101413.00
2018-12-24T13:09:26.186Z,101422.00
2018-12-24T13:14:27.578Z,101416.00
2018-12-24T13:19:28.953Z,101441.00
2018-12-24T13:24:30.332Z,101451.00
2018-12-24T13:29:31.718Z,101461.00
2018-12-24T13:34:33.120Z,101473.00
2018-12-24T13:39:34.521Z,101478.00
2018-12-24T13:44:35.907Z,101491.00
2018-12-24T13:49:37.279Z,101494.00
2018-12-24T13:54:38.705Z,101510.00
2018-12-24T13:59:40.114Z,101520.00
2018-12-24T14:04:41.480Z,101521.00
2018-12-24T14:09:42.894Z,101531.00
2018-12-24T14:15:26.548Z,101536.00
2018-12-24T14:20:27.768Z,101547.00
2018-12-24T14:25:29.085Z,101574.00
2018-12-24T14:30:30.358Z,101575.00
2018-12-24T14:35:31.613Z,101575.00
2018-12-24T14:40:32.853Z,101588.00
2018-12-24T14:45:34.080Z,101608.00
2018-12-24T14:50:35.365Z,101608.00
2018-12-24T14:55:36.593Z,101608.00
2018-12-24T15:00:37.872Z,101605.00
2018-12-24T15:05:39.136Z,101615.00
2018-12-24T15:10:40.393Z,101628.00
2018-12-24T15:15:41.677Z,101624.00
2018-12-24T15:20:42.933Z,101648.00
2018-12-24T15:25:44.182Z,101651.00
2018-12-24T15:30:45.473Z,101668.00
2018-12-24T15:35:46.711Z,101667.00
2018-12-24T15:40:47.950Z,101671.00
2018-12-24T15:45:49.228Z,101671.00
2018-12-24T15:50:50.484Z,101674.00
2018-12-24T15:55:51.744Z,101694.00
2018-12-24T16:00:52.990Z,101700.00
2018-12-24T16:05:54.267Z,101712.00
2018-12-24T16:10:55.515Z,101707.00
2018-12-24T16:15:56.809Z,101707.00
2018-12-24T16:20:58.039Z,101719.00
2018-12-24T16:25:59.289Z,101715.00
2018-12-24T16:31:00.714Z,101724.00
2018-12-24T16:36:02.017Z,101728.00
2018-12-24T16:41:03.386Z,101742.00
2018-12-24T16:46:04.700Z,101745.00
2018-12-24T16:51:06.055Z,101754.00
2018-12-24T16:56:07.295Z,101756.00
2018-12-24T17:01:08.518Z,101771.00
2018-12-24T17:06:09.770Z,101771.00
2018-12-24T17:11:11.027Z,101785.00
2018-12-24T17:16:12.380Z,101766.00
2018-12-24T17:21:13.617Z,101764.00
2018-12-24T17:26:14.872Z,101772.00
2018-12-24T17:31:16.135Z,101777.00
2018-12-24T17:36:17.383Z,101769.00
2018-12-24T17:41:18.635Z,101756.00
2018-12-24T17:46:19.875Z,101734.00
2018-12-24T17:51:21.124Z,101742.00
2018-12-24T17:56:22.451Z,101768.00
2018-12-24T18:01:23.834Z,101772.00
2018-12-24T18:06:25.091Z,101771.00
2018-12-24T18:11:26.353Z,101790.00
2018-12-24T18:16:27.619Z,101809.00
2018-12-24T18:21:28.873Z,101817.00
2018-12-24T18:26:30.124Z,101829.00
2018-12-24T18:31:31.381Z,101837.00
2018-12-24T18:36:32.622Z,101834.00
2018-12-24T18:41:33.874Z,101830.00
2018-12-24T18:46:35.144Z,101823.00
2018-12-24T18:51:36.374Z,101839.00
2018-12-24T18:56:37.617Z,101865.00
2018-12-24T19:01:38.862Z,101872.00
2018-12-24T19:06:40.175Z,101929.00
2018-12-24T19:11:41.458Z,101932.00
2018-12-24T19:16:42.689Z,101923.00
2018-12-24T19:21:44.285Z,101931.00
2018-12-24T19:26:45.776Z,101950.00
2018-12-24T19:31:47.029Z,101950.00
2018-12-24T19:36:48.286Z,101951.00
2018-12-24T19:41:49.560Z,101957.00
2018-12-24T19:46:50.809Z,101954.00
2018-12-24T19:51:52.059Z,101960.00
2018-12-24T19:56:53.334Z,101978.00
2018-12-24T20:01:54.600Z,101982.00
2018-12-24T20:06:55.850Z,102004.00
2018-12-24T20:11:57.419Z,102005.00
2018-12-24T20:16:58.671Z,101992.00
2018-12-24T20:21:59.937Z,101993.00
2018-12-24T20:27:01.292Z,101987.00
2018-12-24T20:32:02.979Z,101988.00
2018-12-24T20:37:04.405Z,101978.00
2018-12-24T20:42:05.683Z,101971.00
2018-12-24T20:47:06.927Z,101972.00
2018-12-24T20:52:08.190Z,101978.00
2018-12-24T20:57:09.432Z,101978.00
2018-12-24T21:02:10.675Z,101971.00
2018-12-24T21:07:12.022Z,101978.00
2018-12-24T21:12:13.278Z,101976.00
2018-12-24T21:17:14.523Z,101981.00
2018-12-24T21:22:15.782Z,101973.00
2018-12-24T21:27:17.019Z,101974.00
2018-12-24T21:32:18.249Z,101981.00
2018-12-24T21:37:19.507Z,101992.00
2018-12-24T21:42:20.763Z,101992.00
2018-12-24T21:47:22.006Z,101986.00
2018-12-24T21:52:23.364Z,102005.00
2018-12-24T21:57:24.602Z,102014.00
2018-12-24T22:02:25.850Z,102007.00
2018-12-24T22:07:27.118Z,102017.00
2018-12-24T22:12:28.384Z,102027.00
2018-12-24T22:17:29.642Z,102019.00
2018-12-24T22:22:30.923Z,102022.00
2018-12-24T22:27:32.181Z,102004.00
2018-12-24T22:32:33.473Z,102015.00
2018-12-24T22:37:34.713Z,102023.00
2018-12-24T22:42:36.000Z,102022.00
2018-12-24T22:47:37.269Z,102019.00
2018-12-24T22:52:38.535Z,102018.00
2018-12-24T22:57:39.776Z,102025.00
2018-12-24T23:02:41.164Z,102012.00
2018-12-24T23:07:42.421Z,102007.00
2018-12-24T23:12:43.691Z,102015.00
2018-12-24T23:17:44.945Z,102024.00
2018-12-24T23:22:46.198Z,102028.00
2018-12-24T23:27:47.564Z,102037.00
2018-12-24T23:32:48.793Z,102041.00
2018-12-24T23:37:50.062Z,102037.00
2018-12-24T23:42:51.303Z,102037.00
2018-12-24T23:47:52.604Z,102035.00
2018-12-24T23:52:53.796Z,102036.00
2018-12-24T23:57:55.046Z,102033.00
